Time;durP1;ratioP1;P1;durP2;ratioP2;P2;SDS_P1;SDS_P2;PMS_P1;PMS_P2;Temp;Humidity;BMP_temperature;BMP_pressure;BME280_temperature;BME280_humidity;BME280_pressure;Samples;Min_cycle;Max_cycle;Signal;HPM_P1;HPM_P2
2022/08/26 00:00:30;;;;;;;44.67;39.95;;;21.70;99.90;;;;;;6281347;22;20064;-84
2022/08/26 00:02:57;;;;;;;43.13;38.50;;;21.80;99.90;;;;;;6280585;22;20069;-83
2022/08/26 00:05:23;;;;;;;43.53;38.75;;;21.70;99.90;;;;;;6255259;22;20121;-84
2022/08/26 00:07:48;;;;;;;45.75;40.80;;;21.70;99.90;;;;;;6230182;22;20437;-84
2022/08/26 00:10:14;;;;;;;48.00;40.53;;;21.70;99.90;;;;;;6229418;22;20154;-84
2022/08/26 00:12:44;;;;;;;44.83;39.75;;;21.70;99.90;;;;;;6280002;22;20094;-84
2022/08/26 00:15:12;;;;;;;41.78;37.28;;;21.70;99.90;;;;;;6255369;22;20015;-84
2022/08/26 00:17:38;;;;;;;43.25;38.00;;;21.60;99.90;;;;;;6254602;22;20022;-84
2022/08/26 00:20:05;;;;;;;42.58;36.55;;;21.60;99.90;;;;;;6280025;22;20015;-84
2022/08/26 00:22:31;;;;;;;40.78;36.40;;;21.60;99.90;;;;;;6254293;22;20012;-84
2022/08/26 00:24:57;;;;;;;42.78;36.15;;;21.60;99.90;;;;;;6254621;22;20453;-84
2022/08/26 00:27:23;;;;;;;42.03;36.22;;;21.60;99.90;;;;;;6255542;22;20015;-84
2022/08/26 00:29:48;;;;;;;45.55;37.78;;;21.60;99.90;;;;;;6229580;22;20018;-84
2022/08/26 00:32:14;;;;;;;46.00;37.03;;;21.60;99.90;;;;;;6282443;22;20015;-84
2022/08/26 00:34:40;;;;;;;47.60;36.05;;;21.50;99.90;;;;;;6256889;22;20019;-81
2022/08/26 00:37:06;;;;;;;41.22;34.75;;;21.50;99.90;;;;;;6231007;22;20026;-82
2022/08/26 00:39:32;;;;;;;44.08;35.95;;;21.60;99.90;;;;;;6251144;22;20019;-83
2022/08/26 00:41:58;;;;;;;43.40;33.08;;;21.50;99.90;;;;;;6176233;22;20441;-84
2022/08/26 00:44:24;;;;;;;40.40;32.65;;;21.50;99.90;;;;;;6177718;22;20562;-83
2022/08/26 00:46:54;;;;;;;43.60;32.42;;;21.50;99.90;;;;;;6226619;22;20039;-84
2022/08/26 00:49:29;;;;;;;40.75;31.08;;;21.50;99.90;;;;;;6227175;22;20016;-84
2022/08/26 00:52:02;;;;;;;38.60;30.83;;;21.50;99.90;;;;;;6225443;22;20008;-84
2022/08/26 00:54:34;;;;;;;37.65;31.08;;;21.40;99.90;;;;;;6226714;22;20090;-84
2022/08/26 00:57:10;;;;;;;46.80;30.35;;;21.40;99.90;;;;;;6251631;22;20544;-83
2022/08/26 00:59:36;;;;;;;34.33;28.35;;;21.40;99.90;;;;;;6225742;22;20013;-83
2022/08/26 01:02:02;;;;;;;31.73;26.38;;;21.40;99.90;;;;;;6251043;22;20648;-83
2022/08/26 01:04:30;;;;;;;35.10;25.98;;;21.40;99.90;;;;;;6225028;22;20035;-84
2022/08/26 01:06:56;;;;;;;33.20;24.88;;;21.50;99.90;;;;;;6224748;22;20011;-83
2022/08/26 01:09:22;;;;;;;36.50;23.70;;;21.40;99.90;;;;;;6225490;22;20054;-84
2022/08/26 01:11:51;;;;;;;30.20;22.13;;;21.40;99.90;;;;;;6224832;22;20012;-84
2022/08/26 01:14:19;;;;;;;33.30;20.92;;;21.40;99.90;;;;;;6249975;22;20016;-83
2022/08/26 01:16:46;;;;;;;25.85;20.35;;;21.40;99.90;;;;;;6200113;22;20316;-83
2022/08/26 01:19:23;;;;;;;29.33;18.90;;;21.40;99.90;;;;;;6175085;22;20015;-83
2022/08/26 01:21:56;;;;;;;26.23;18.40;;;21.40;99.90;;;;;;6225157;22;20012;-83
2022/08/26 01:24:24;;;;;;;26.52;18.17;;;21.30;99.90;;;;;;6225372;22;20050;-83
2022/08/26 01:26:51;;;;;;;28.48;18.15;;;21.30;99.90;;;;;;6226141;22;20082;-83
2022/08/26 01:29:18;;;;;;;28.13;18.27;;;21.30;99.90;;;;;;6176210;22;20012;-83
2022/08/26 01:32:06;;;;;;;25.60;17.08;;;21.20;99.90;;;;;;6251210;22;20012;-83
2022/08/26 01:34:35;;;;;;;23.85;17.65;;;21.30;99.90;;;;;;6250263;22;20341;-83
2022/08/26 01:37:04;;;;;;;26.52;16.08;;;21.20;99.90;;;;;;6229410;22;20016;-83
2022/08/26 01:39:35;;;;;;;20.10;15.25;;;21.10;99.90;;;;;;6250312;22;20540;-83
2022/08/26 01:42:04;;;;;;;23.27;16.15;;;21.20;99.90;;;;;;6276746;22;20015;-83
2022/08/26 01:44:37;;;;;;;24.08;16.45;;;21.20;99.90;;;;;;6276896;22;20043;-83
2022/08/26 01:47:05;;;;;;;23.73;16.30;;;21.10;99.90;;;;;;6276881;22;20016;-83
2022/08/26 01:49:33;;;;;;;22.67;14.30;;;21.10;99.90;;;;;;6276949;22;20007;-83
2022/08/26 01:51:59;;;;;;;23.08;14.93;;;21.10;99.90;;;;;;6251123;22;20011;-83
2022/08/26 01:54:25;;;;;;;18.92;13.85;;;21.10;99.90;;;;;;6250880;22;20440;-83
2022/08/26 01:56:52;;;;;;;17.67;12.77;;;21.10;99.90;;;;;;6226233;22;20012;-83
2022/08/26 01:59:19;;;;;;;23.63;13.45;;;21.10;99.90;;;;;;6252749;22;20026;-83
2022/08/26 02:01:45;;;;;;;24.25;14.27;;;21.10;99.90;;;;;;6253036;22;20528;-83
2022/08/26 02:04:20;;;;;;;18.38;12.52;;;21.10;99.90;;;;;;6203117;22;20378;-84
2022/08/26 02:06:46;;;;;;;20.33;13.00;;;21.10;99.90;;;;;;6279032;22;20022;-83
2022/08/26 02:09:13;;;;;;;22.33;11.63;;;21.10;99.90;;;;;;6266684;22;20034;-83
2022/08/26 02:11:39;;;;;;;18.83;10.35;;;21.10;99.90;;;;;;6236422;22;20015;-82
2022/08/26 02:14:12;;;;;;;17.10;10.82;;;21.10;99.90;;;;;;6276683;22;20000;-82
2022/08/26 02:16:45;;;;;;;21.58;11.52;;;21.10;99.90;;;;;;6252651;22;20008;-83
2022/08/26 02:19:15;;;;;;;19.92;11.65;;;21.00;99.90;;;;;;6251914;22;20012;-83
2022/08/26 02:21:42;;;;;;;19.65;11.25;;;21.00;99.90;;;;;;6252286;22;20011;-83
2022/08/26 02:24:18;;;;;;;17.50;10.15;;;21.00;99.90;;;;;;6277696;22;20338;-83
2022/08/26 02:26:45;;;;;;;15.20;8.88;;;21.00;99.90;;;;;;6252271;22;20012;-83
2022/08/26 02:29:23;;;;;;;17.75;9.43;;;21.00;99.90;;;;;;6251185;22;20058;-83
2022/08/26 02:31:50;;;;;;;13.45;9.45;;;21.10;99.90;;;;;;6251174;22;20452;-83
2022/08/26 02:34:20;;;;;;;15.15;9.00;;;21.10;99.90;;;;;;6252680;22;20069;-83
2022/08/26 02:36:45;;;;;;;15.40;9.27;;;21.00;99.90;;;;;;6251217;22;20392;-83
2022/08/26 02:39:12;;;;;;;19.75;9.15;;;21.00;99.90;;;;;;6250382;22;20022;-83
2022/08/26 02:41:37;;;;;;;13.00;8.55;;;20.90;99.90;;;;;;6224257;22;20041;-84
2022/08/26 02:44:05;;;;;;;17.13;9.05;;;20.90;99.90;;;;;;6224707;22;20351;-83
2022/08/26 02:46:31;;;;;;;15.38;8.60;;;20.90;99.90;;;;;;6250900;22;20445;-83
2022/08/26 02:48:58;;;;;;;16.30;8.75;;;20.80;99.90;;;;;;6225380;22;20011;-83
2022/08/26 02:51:23;;;;;;;20.10;8.80;;;20.80;99.90;;;;;;6275623;22;20016;-83
2022/08/26 02:53:49;;;;;;;16.10;8.20;;;20.80;99.90;;;;;;6224472;22;20030;-83
2022/08/26 02:56:15;;;;;;;16.88;8.57;;;20.80;99.90;;;;;;6225015;22;20012;-83
2022/08/26 02:58:41;;;;;;;19.60;7.72;;;20.70;99.90;;;;;;6276718;22;20016;-83
2022/08/26 03:01:07;;;;;;;16.25;7.20;;;20.80;99.90;;;;;;6250648;22;20020;-83
2022/08/26 03:03:32;;;;;;;14.35;6.68;;;20.80;99.90;;;;;;6250050;22;20019;-83
2022/08/26 03:05:58;;;;;;;16.58;6.55;;;20.70;99.90;;;;;;6249810;22;20043;-83
2022/08/26 03:08:24;;;;;;;12.75;5.82;;;20.70;99.90;;;;;;6199193;22;20074;-83
2022/08/26 03:10:50;;;;;;;14.40;6.53;;;20.70;99.90;;;;;;6224407;22;20476;-83
2022/08/26 03:13:16;;;;;;;14.35;5.57;;;20.70;99.90;;;;;;6224378;22;20360;-83
2022/08/26 03:15:42;;;;;;;14.52;4.90;;;20.70;99.90;;;;;;6249591;22;20011;-83
2022/08/26 03:18:08;;;;;;;11.65;5.10;;;20.70;99.90;;;;;;6224700;22;20130;-83
2022/08/26 03:20:34;;;;;;;12.18;4.65;;;20.70;99.90;;;;;;6198849;22;20069;-83
2022/08/26 03:23:00;;;;;;;10.52;4.30;;;20.60;99.90;;;;;;6249775;22;20034;-83
2022/08/26 03:25:26;;;;;;;12.10;3.97;;;20.60;99.90;;;;;;6199114;22;20464;-83
2022/08/26 03:27:52;;;;;;;9.38;3.70;;;20.60;99.90;;;;;;6249545;22;20445;-83
2022/08/26 03:33:05;;;;;;;8.85;3.08;;;20.60;99.90;;;;;;6253498;22;20016;-83
2022/08/26 03:35:32;;;;;;;11.65;3.42;;;20.50;99.90;;;;;;6199469;22;20023;-83
2022/08/26 03:37:58;;;;;;;11.63;3.45;;;20.50;99.90;;;;;;6248714;22;20016;-83
2022/08/26 03:40:24;;;;;;;10.90;3.38;;;20.50;99.90;;;;;;6249118;22;20095;-83
2022/08/26 03:42:50;;;;;;;8.02;2.90;;;20.50;99.90;;;;;;6275031;22;20019;-83
2022/08/26 03:45:17;;;;;;;12.57;3.08;;;20.70;99.90;;;;;;6249435;22;20449;-83
2022/08/26 03:47:43;;;;;;;7.10;2.90;;;20.40;99.90;;;;;;6249104;22;20098;-83
2022/08/26 03:50:11;;;;;;;11.07;3.20;;;20.50;99.90;;;;;;6249093;22;20008;-83
2022/08/26 03:52:37;;;;;;;9.38;2.88;;;20.40;99.90;;;;;;6249198;22;20012;-83
2022/08/26 03:55:05;;;;;;;9.43;2.92;;;20.40;99.90;;;;;;6224824;22;20026;-83
2022/08/26 03:57:31;;;;;;;11.68;3.55;;;20.40;99.90;;;;;;6223989;22;20087;-82
2022/08/26 03:59:57;;;;;;;13.13;3.65;;;20.40;99.90;;;;;;6224450;22;20016;-83
2022/08/26 04:02:23;;;;;;;6.35;2.35;;;20.40;99.90;;;;;;6223637;22;20016;-83
2022/08/26 04:04:48;;;;;;;10.32;3.20;;;20.40;99.90;;;;;;6223893;22;20019;-83
2022/08/26 04:07:14;;;;;;;9.60;3.17;;;20.40;99.90;;;;;;6225028;22;20039;-83
2022/08/26 04:09:40;;;;;;;11.07;2.65;;;20.40;99.90;;;;;;6251113;22;20014;-83
2022/08/26 04:12:06;;;;;;;14.90;3.00;;;20.40;99.90;;;;;;6251400;22;20333;-83
2022/08/26 04:14:34;;;;;;;8.63;3.50;;;20.40;99.90;;;;;;6226305;22;20020;-83
2022/08/26 04:17:00;;;;;;;10.85;3.05;;;20.50;99.90;;;;;;6227124;22;20050;-83
2022/08/26 04:19:26;;;;;;;9.25;2.90;;;20.40;99.90;;;;;;6226108;22;20012;-83
2022/08/26 04:21:52;;;;;;;10.00;3.22;;;20.40;99.90;;;;;;6200630;22;20018;-83
2022/08/26 04:24:20;;;;;;;6.47;2.60;;;20.40;99.90;;;;;;6226460;22;20013;-83
2022/08/26 04:26:45;;;;;;;12.02;2.80;;;20.30;99.90;;;;;;6278111;22;20075;-83
2022/08/26 04:29:18;;;;;;;10.95;3.00;;;20.40;99.90;;;;;;6251375;22;20457;-82
2022/08/26 04:31:46;;;;;;;19.40;3.25;;;20.30;99.90;;;;;;6251409;22;20011;-83
2022/08/26 04:34:13;;;;;;;8.43;2.70;;;20.30;99.90;;;;;;6276858;22;20086;-83
2022/08/26 04:36:39;;;;;;;8.63;3.13;;;20.20;99.90;;;;;;6281098;22;20019;-83
2022/08/26 04:39:06;;;;;;;11.75;3.20;;;20.20;99.90;;;;;;6256138;22;20026;-82
2022/08/26 04:41:32;;;;;;;12.63;3.00;;;20.20;99.90;;;;;;6281669;22;20457;-83
2022/08/26 04:43:58;;;;;;;11.48;2.78;;;20.20;99.90;;;;;;6256301;22;20018;-83
2022/08/26 04:46:24;;;;;;;14.63;3.30;;;20.20;99.90;;;;;;6257149;22;20098;-83
2022/08/26 04:48:52;;;;;;;9.45;3.15;;;20.30;99.90;;;;;;6281574;22;20008;-83
2022/08/26 04:51:19;;;;;;;8.90;2.97;;;20.30;99.90;;;;;;6281536;22;20015;-83
2022/08/26 04:53:45;;;;;;;8.90;2.78;;;20.30;99.90;;;;;;6256725;22;20098;-83
2022/08/26 04:56:12;;;;;;;13.60;2.92;;;20.30;99.90;;;;;;6232426;22;20038;-83
2022/08/26 04:58:38;;;;;;;13.27;2.90;;;20.30;99.90;;;;;;6256769;22;20023;-83
2022/08/26 05:01:04;;;;;;;8.57;2.70;;;20.40;99.90;;;;;;6256136;22;20011;-83
2022/08/26 05:03:30;;;;;;;15.32;3.25;;;20.40;99.90;;;;;;6231694;22;20068;-83
2022/08/26 05:05:56;;;;;;;13.93;3.20;;;20.40;99.90;;;;;;6231224;22;20068;-83
2022/08/26 05:08:23;;;;;;;13.20;3.00;;;20.40;99.90;;;;;;6255737;22;20011;-83
2022/08/26 05:10:54;;;;;;;11.20;3.30;;;20.40;99.90;;;;;;6205952;22;20007;-83
2022/08/26 05:13:21;;;;;;;15.73;4.20;;;20.40;99.90;;;;;;6256940;22;20011;-83
2022/08/26 05:15:47;;;;;;;13.13;3.15;;;20.50;99.90;;;;;;6231775;22;20030;-83
2022/08/26 05:18:15;;;;;;;11.32;3.40;;;20.50;99.90;;;;;;6231599;22;20023;-83
2022/08/26 05:20:43;;;;;;;19.88;3.42;;;20.50;99.90;;;;;;6231236;22;20018;-83
2022/08/26 05:23:08;;;;;;;11.32;3.00;;;20.60;99.90;;;;;;6256482;22;20015;-83
2022/08/26 05:25:43;;;;;;;11.68;3.42;;;20.60;99.90;;;;;;6230838;22;20022;-83
2022/08/26 05:28:10;;;;;;;12.73;3.05;;;20.60;99.90;;;;;;6256453;22;20047;-83
2022/08/26 05:30:38;;;;;;;14.43;3.08;;;20.60;99.90;;;;;;6255828;22;20014;-83
2022/08/26 05:33:04;;;;;;;14.35;3.05;;;20.60;99.90;;;;;;6281080;22;20008;-83
2022/08/26 05:35:32;;;;;;;14.35;3.55;;;20.60;99.90;;;;;;6254378;22;20015;-83
2022/08/26 05:38:00;;;;;;;13.18;3.15;;;20.60;99.90;;;;;;6232004;22;20019;-84
2022/08/26 05:40:26;;;;;;;15.85;3.05;;;20.60;99.90;;;;;;6256709;22;20015;-83
2022/08/26 05:42:52;;;;;;;12.82;3.60;;;20.60;99.90;;;;;;6256701;22;20149;-83
2022/08/26 05:45:19;;;;;;;13.38;3.30;;;20.60;99.90;;;;;;6256325;22;20447;-85
2022/08/26 05:47:45;;;;;;;16.42;3.58;;;20.60;99.90;;;;;;6255822;22;20011;-84
2022/08/26 05:50:10;;;;;;;14.93;3.40;;;20.70;99.90;;;;;;6255718;22;20041;-83
2022/08/26 05:52:36;;;;;;;9.90;2.47;;;20.60;99.90;;;;;;6256418;22;20591;-83
2022/08/26 05:55:03;;;;;;;13.65;3.33;;;20.60;99.90;;;;;;6205035;22;20019;-83
2022/08/26 05:57:29;;;;;;;20.33;3.08;;;20.60;99.90;;;;;;6254494;22;20528;-79
2022/08/26 05:59:55;;;;;;;16.02;3.22;;;20.60;99.90;;;;;;6228511;22;20020;-79
2022/08/26 06:02:21;;;;;;;14.80;3.03;;;20.60;99.90;;;;;;6280330;22;20026;-80
2022/08/26 06:04:46;;;;;;;15.55;3.40;;;20.60;99.90;;;;;;6279317;22;20019;-78
2022/08/26 06:07:12;;;;;;;12.30;3.03;;;20.60;99.90;;;;;;6227714;22;20018;-78
2022/08/26 06:09:39;;;;;;;15.25;2.85;;;20.60;99.90;;;;;;6253672;22;20042;-77
2022/08/26 06:12:04;;;;;;;10.45;2.85;;;20.60;99.90;;;;;;6280501;22;20007;-80
2022/08/26 06:14:30;;;;;;;17.63;3.40;;;20.60;99.90;;;;;;6229928;22;20368;-79
2022/08/26 06:16:56;;;;;;;12.25;3.22;;;20.60;99.90;;;;;;6281171;22;20021;-78
2022/08/26 06:19:22;;;;;;;16.58;3.45;;;20.60;99.90;;;;;;6255042;22;20015;-78
2022/08/26 06:21:49;;;;;;;16.77;3.38;;;20.60;99.90;;;;;;6230607;22;20018;-78
2022/08/26 06:27:07;;;;;;;14.70;3.00;;;20.60;99.90;;;;;;6258876;22;20407;-80
2022/08/26 06:29:34;;;;;;;16.55;2.78;;;20.60;99.90;;;;;;6279457;22;20022;-80
2022/08/26 06:32:01;;;;;;;14.02;2.97;;;20.60;99.90;;;;;;6254087;22;20116;-80
2022/08/26 06:34:27;;;;;;;13.98;3.10;;;20.60;99.90;;;;;;6229268;22;20094;-80
2022/08/26 06:36:54;;;;;;;13.70;3.00;;;20.60;99.90;;;;;;6253916;22;20456;-79
2022/08/26 06:39:20;;;;;;;13.52;2.78;;;20.60;99.90;;;;;;6254308;22;20023;-79
2022/08/26 06:41:46;;;;;;;8.63;2.38;;;20.60;99.90;;;;;;6228628;22;20073;-79
2022/08/26 06:44:13;;;;;;;17.20;3.13;;;20.50;99.90;;;;;;6279355;22;20023;-79
2022/08/26 06:46:40;;;;;;;14.35;3.00;;;20.50;99.90;;;;;;6253054;22;20004;-79
2022/08/26 06:49:06;;;;;;;12.75;2.75;;;20.50;99.90;;;;;;6254535;22;20014;-79
2022/08/26 06:51:35;;;;;;;13.82;3.40;;;20.50;99.90;;;;;;6204171;22;20048;-79
2022/08/26 06:54:02;;;;;;;14.20;2.75;;;20.50;99.90;;;;;;6255087;22;20017;-79
2022/08/26 06:56:38;;;;;;;9.88;2.70;;;20.60;99.90;;;;;;6254591;22;20019;-79
2022/08/26 06:59:04;;;;;;;10.23;2.92;;;20.60;99.90;;;;;;6280468;22;20019;-79
2022/08/26 07:01:33;;;;;;;8.93;2.63;;;20.60;99.90;;;;;;6280225;22;20015;-79
2022/08/26 07:04:02;;;;;;;10.02;2.85;;;20.60;99.90;;;;;;6279560;22;20090;-79
2022/08/26 07:06:29;;;;;;;8.00;2.58;;;20.60;99.90;;;;;;6252838;22;20456;-79
2022/08/26 07:09:03;;;;;;;12.18;2.95;;;20.60;99.90;;;;;;6253690;22;20376;-79
2022/08/26 07:11:29;;;;;;;13.70;2.60;;;20.60;99.90;;;;;;6253179;22;20314;-78
2022/08/26 07:13:57;;;;;;;10.48;2.78;;;20.60;99.90;;;;;;6229388;22;20012;-78
2022/08/26 07:16:22;;;;;;;12.48;2.53;;;20.60;99.90;;;;;;6229423;22;20071;-78
2022/08/26 07:18:51;;;;;;;14.40;2.40;;;20.60;99.90;;;;;;6228978;22;20085;-79
2022/08/26 07:21:18;;;;;;;10.40;2.53;;;20.60;99.90;;;;;;6255337;22;20015;-79
2022/08/26 07:23:44;;;;;;;9.63;2.40;;;20.60;99.90;;;;;;6253865;22;20046;-79
2022/08/26 07:26:19;;;;;;;9.40;2.25;;;20.60;99.90;;;;;;6204681;22;20011;-79
2022/08/26 07:28:47;;;;;;;12.27;2.47;;;20.50;99.90;;;;;;6254538;22;20011;-79
2022/08/26 07:31:14;;;;;;;10.18;2.20;;;20.60;99.90;;;;;;6204602;22;20022;-79
2022/08/26 07:33:41;;;;;;;7.43;2.00;;;20.60;99.90;;;;;;6228573;22;20007;-79
2022/08/26 07:36:09;;;;;;;13.65;2.28;;;20.60;99.90;;;;;;6279991;22;20007;-79
2022/08/26 07:38:36;;;;;;;8.95;2.05;;;20.70;99.90;;;;;;6273827;22;20028;-79
2022/08/26 07:41:02;;;;;;;9.25;2.03;;;20.70;99.90;;;;;;6276457;22;20020;-80
2022/08/26 07:43:29;;;;;;;8.50;2.13;;;20.70;99.90;;;;;;6227238;22;20018;-79
2022/08/26 07:45:55;;;;;;;8.02;2.13;;;20.70;99.90;;;;;;6278692;22;20023;-79
2022/08/26 07:48:22;;;;;;;7.57;2.10;;;20.80;99.90;;;;;;6253194;22;20042;-79
2022/08/26 07:50:48;;;;;;;9.25;2.20;;;20.80;99.90;;;;;;6283745;22;20404;-78
2022/08/26 07:53:14;;;;;;;10.43;2.00;;;20.90;99.90;;;;;;6257276;22;20023;-78
2022/08/26 07:55:40;;;;;;;9.23;2.05;;;20.90;99.90;;;;;;6254628;22;20494;-79
2022/08/26 07:58:06;;;;;;;11.23;2.35;;;20.90;99.90;;;;;;6252614;22;20051;-79
2022/08/26 08:00:32;;;;;;;9.23;2.05;;;20.90;99.90;;;;;;6277009;22;20019;-79
2022/08/26 08:02:59;;;;;;;10.70;2.13;;;21.00;99.90;;;;;;6225678;22;20047;-79
2022/08/26 08:05:25;;;;;;;7.45;2.13;;;21.10;99.90;;;;;;6275887;22;20015;-79
2022/08/26 08:07:53;;;;;;;9.93;2.38;;;21.10;99.90;;;;;;6226200;22;20396;-79
2022/08/26 08:10:21;;;;;;;11.23;2.42;;;21.30;99.90;;;;;;6227502;22;20451;-79
2022/08/26 08:12:49;;;;;;;9.60;1.95;;;21.40;99.90;;;;;;6277782;22;20064;-79
2022/08/26 08:15:16;;;;;;;9.38;2.20;;;21.40;99.90;;;;;;6251054;22;20015;-79
2022/08/26 08:17:42;;;;;;;12.43;2.60;;;21.50;99.90;;;;;;6250823;22;20452;-79
2022/08/26 08:20:10;;;;;;;12.68;2.47;;;21.50;99.90;;;;;;6275980;22;20022;-78
2022/08/26 08:22:36;;;;;;;7.85;1.80;;;21.60;99.90;;;;;;6226192;22;20340;-79
2022/08/26 08:25:01;;;;;;;12.38;2.78;;;21.70;99.90;;;;;;6225727;22;20016;-79
2022/08/26 08:27:27;;;;;;;9.65;2.10;;;21.60;99.90;;;;;;6224393;22;20086;-79
2022/08/26 08:29:53;;;;;;;12.82;2.63;;;21.60;99.90;;;;;;6250742;22;20008;-79
2022/08/26 08:32:20;;;;;;;8.48;2.30;;;21.60;99.90;;;;;;6224370;22;20346;-79
2022/08/26 08:34:46;;;;;;;11.55;2.13;;;21.60;99.90;;;;;;6250038;22;20012;-79
2022/08/26 08:37:12;;;;;;;8.82;1.85;;;21.60;99.90;;;;;;6250379;22;20020;-79
2022/08/26 08:39:37;;;;;;;8.10;1.80;;;21.70;99.90;;;;;;6250573;22;20016;-79
2022/08/26 08:42:41;;;;;;;6.30;1.60;;;21.70;99.90;;;;;;6249664;22;20016;-79
2022/08/26 08:45:12;;;;;;;8.95;2.42;;;21.60;99.90;;;;;;6276037;22;20086;-79
2022/08/26 08:47:43;;;;;;;12.80;2.35;;;21.50;99.90;;;;;;6250051;22;20436;-79
2022/08/26 08:50:21;;;;;;;10.43;1.90;;;21.50;99.90;;;;;;6250711;22;20014;-79
2022/08/26 08:52:55;;;;;;;10.70;2.15;;;21.40;99.90;;;;;;6272697;22;20468;-78
2022/08/26 08:55:26;;;;;;;13.73;1.90;;;21.50;99.90;;;;;;6274856;22;20046;-79
2022/08/26 08:58:01;;;;;;;13.45;1.92;;;21.50;99.90;;;;;;6249147;22;20453;-78
2022/08/26 09:00:35;;;;;;;10.02;1.85;;;21.40;99.90;;;;;;6276295;22;20481;-84
2022/08/26 09:03:15;;;;;;;12.43;1.98;;;21.40;99.90;;;;;;6251450;22;20016;-81
2022/08/26 09:05:43;;;;;;;9.27;2.15;;;21.40;99.90;;;;;;6275955;22;20047;-81
2022/08/26 09:08:26;;;;;;;7.38;2.33;;;21.40;99.90;;;;;;6275196;22;20050;-81
2022/08/26 09:10:58;;;;;;;13.57;2.33;;;21.40;99.90;;;;;;6250939;22;20059;-81
2022/08/26 09:13:24;;;;;;;10.18;2.13;;;21.40;99.90;;;;;;6250679;22;20065;-82
2022/08/26 09:15:53;;;;;;;12.90;2.58;;;21.30;99.90;;;;;;6226409;22;20022;-82
2022/08/26 09:18:53;;;;;;;10.20;2.00;;;21.40;99.90;;;;;;6275835;22;20016;-82
2022/08/26 09:21:22;;;;;;;7.57;1.80;;;21.50;99.90;;;;;;6251399;22;20023;-79
2022/08/26 09:23:49;;;;;;;10.20;2.13;;;21.50;99.90;;;;;;6274102;22;20043;-79
2022/08/26 09:26:16;;;;;;;7.15;1.85;;;21.50;99.90;;;;;;6248919;22;20012;-80
2022/08/26 09:29:04;;;;;;;10.02;2.20;;;21.50;99.90;;;;;;6274587;22;20043;-83
2022/08/26 09:31:33;;;;;;;6.72;1.90;;;21.50;99.90;;;;;;6249605;22;20007;-80
2022/08/26 09:34:21;;;;;;;8.38;1.63;;;21.50;99.90;;;;;;6249302;22;20043;-82
2022/08/26 09:36:54;;;;;;;10.13;2.30;;;21.60;99.90;;;;;;6278729;22;20007;-81
2022/08/26 09:39:25;;;;;;;10.50;1.95;;;21.60;99.90;;;;;;6280280;22;20460;-83
2022/08/26 09:42:26;;;;;;;8.13;1.90;;;21.70;99.90;;;;;;6254066;22;20011;-82
2022/08/26 09:44:58;;;;;;;5.78;1.70;;;21.70;99.90;;;;;;6254807;22;20061;-81
2022/08/26 09:47:31;;;;;;;7.97;2.05;;;21.70;99.90;;;;;;6255018;22;20345;-83
2022/08/26 09:50:22;;;;;;;10.32;2.10;;;21.70;99.90;;;;;;6255662;22;20042;-81
2022/08/26 09:53:24;;;;;;;10.00;2.25;;;21.70;99.90;;;;;;6255325;22;20064;-82
2022/08/26 09:56:08;;;;;;;14.70;2.25;;;21.70;99.90;;;;;;6256177;22;20011;-82
2022/08/26 09:58:37;;;;;;;10.13;1.75;;;21.70;99.90;;;;;;6255282;22;20449;-81
2022/08/26 10:01:06;;;;;;;11.68;2.33;;;21.60;99.90;;;;;;6255632;22;20061;-81
2022/08/26 10:03:37;;;;;;;10.40;2.25;;;21.60;99.90;;;;;;6255527;22;20017;-80
2022/08/26 10:06:06;;;;;;;6.55;1.65;;;21.60;99.90;;;;;;6256397;22;20023;-82
2022/08/26 10:08:40;;;;;;;5.97;1.77;;;21.60;99.90;;;;;;6256116;22;20042;-83
2022/08/26 10:11:17;;;;;;;6.13;1.50;;;21.50;99.90;;;;;;6256448;22;20499;-82
2022/08/26 10:13:48;;;;;;;7.57;1.60;;;21.50;99.90;;;;;;6256582;22;20022;-81
2022/08/26 10:16:21;;;;;;;8.85;1.75;;;21.40;99.90;;;;;;6255415;22;20019;-81
2022/08/26 10:19:06;;;;;;;4.85;1.40;;;21.40;99.90;;;;;;6255434;22;20046;-81
2022/08/26 10:21:41;;;;;;;8.30;2.00;;;21.40;99.90;;;;;;6255805;22;20011;-82
2022/08/26 10:24:10;;;;;;;12.83;2.13;;;21.30;99.90;;;;;;6280978;22;20011;-82
2022/08/26 10:26:57;;;;;;;12.02;1.70;;;21.20;99.90;;;;;;6256534;22;20238;-82
2022/08/26 10:29:33;;;;;;;9.27;2.20;;;21.20;99.90;;;;;;6309303;22;20011;-82
2022/08/26 10:31:59;;;;;;;;;;;21.30;99.90;;;;;;6282181;22;20348;-82
2022/08/26 10:34:25;;;;;;;7.97;1.88;;;21.30;99.90;;;;;;6281320;22;20029;-82
2022/08/26 10:36:55;;;;;;;6.15;1.60;;;21.30;99.90;;;;;;6229333;22;20019;-83
2022/08/26 10:39:39;;;;;;;8.25;1.67;;;21.30;99.90;;;;;;6254444;22;20062;-83
2022/08/26 10:42:37;;;;;;;6.78;1.60;;;21.40;99.90;;;;;;6279806;22;20043;-82
2022/08/26 10:45:15;;;;;;;8.82;1.30;;;21.50;99.90;;;;;;6254812;22;20015;-83
2022/08/26 10:47:54;;;;;;;5.45;1.35;;;21.50;99.90;;;;;;6280819;22;20007;-83
2022/08/26 10:50:24;;;;;;;7.85;1.60;;;21.40;99.90;;;;;;6280346;22;20060;-82
2022/08/26 10:53:00;;;;;;;6.75;1.60;;;21.30;99.90;;;;;;6254580;22;20011;-82
2022/08/26 10:55:39;;;;;;;3.72;1.20;;;21.40;99.90;;;;;;6280403;22;20011;-83
2022/08/26 10:58:45;;;;;;;5.28;1.42;;;21.40;99.90;;;;;;6278898;22;20023;-82
2022/08/26 11:01:48;;;;;;;3.42;1.15;;;21.30;99.90;;;;;;6260275;22;20011;-82
2022/08/26 11:04:59;;;;;;;4.65;1.30;;;21.40;99.90;;;;;;6280310;22;20122;-82
2022/08/26 11:07:44;;;;;;;6.97;1.30;;;21.40;99.90;;;;;;6172924;22;20011;-81
2022/08/26 11:10:19;;;;;;;4.88;1.10;;;21.50;99.90;;;;;;6255189;22;20052;-81
2022/08/26 11:12:48;;;;;;;6.50;1.13;;;21.60;99.90;;;;;;6252905;22;20011;-84
2022/08/26 11:15:36;;;;;;;5.53;1.27;;;21.60;99.90;;;;;;6279673;22;20026;-78
2022/08/26 11:18:35;;;;;;;6.28;1.60;;;21.50;99.90;;;;;;6279465;22;20445;-78
2022/08/26 11:21:01;;;;;;;5.32;1.20;;;21.50;99.90;;;;;;6278739;22;20053;-77
2022/08/26 11:23:36;;;;;;;5.70;1.70;;;21.60;99.90;;;;;;6280178;22;20015;-78
2022/08/26 11:26:08;;;;;;;4.10;1.10;;;21.60;99.90;;;;;;6252722;22;20012;-77
2022/08/26 11:28:54;;;;;;;4.07;1.20;;;21.70;99.90;;;;;;6252949;22;20059;-77
2022/08/26 11:31:23;;;;;;;;;;;21.70;99.90;;;;;;6229031;22;20007;-77
2022/08/26 11:33:51;;;;;;;5.25;1.35;;;21.70;99.90;;;;;;6253718;22;19950;-77
2022/08/26 11:36:38;;;;;;;2.67;1.10;;;21.70;99.90;;;;;;6276727;22;20008;-77
2022/08/26 11:39:15;;;;;;;5.82;1.30;;;21.70;99.90;;;;;;6278696;22;20023;-77
2022/08/26 11:41:43;;;;;;;4.80;1.20;;;21.70;99.90;;;;;;6253752;22;20072;-77
2022/08/26 11:44:08;;;;;;;4.47;1.30;;;21.90;99.90;;;;;;6253718;22;20011;-78
2022/08/26 11:46:36;;;;;;;12.77;2.75;;;22.00;99.90;;;;;;6253002;22;20064;-77
2022/08/26 11:49:06;;;;;;;4.30;1.40;;;21.90;99.90;;;;;;6228323;22;20090;-78
2022/08/26 11:51:33;;;;;;;4.03;1.40;;;21.90;99.90;;;;;;6279740;22;20118;-77
2022/08/26 11:54:29;;;;;;;7.32;1.20;;;22.00;99.90;;;;;;6254644;22;20011;-78
2022/08/26 11:56:56;;;;;;;5.30;1.08;;;22.00;99.90;;;;;;6224492;22;20011;-78
2022/08/26 11:59:32;;;;;;;7.20;1.42;;;21.90;99.90;;;;;;6229498;22;20026;-78
2022/08/26 12:01:59;;;;;;;5.20;1.20;;;21.90;99.90;;;;;;6252778;22;20068;-79
2022/08/26 12:04:35;;;;;;;7.80;1.58;;;22.00;99.90;;;;;;6227730;22;20011;-79
2022/08/26 12:07:01;;;;;;;3.97;1.08;;;21.90;99.90;;;;;;6254197;22;20025;-79
2022/08/26 12:09:33;;;;;;;6.88;1.05;;;21.90;99.90;;;;;;6229719;22;20018;-79
2022/08/26 12:12:23;;;;;;;6.82;1.50;;;21.90;99.90;;;;;;6278884;22;20393;-79
2022/08/26 12:15:17;;;;;;;4.18;1.08;;;21.80;99.90;;;;;;6253291;22;20540;-79
2022/08/26 12:17:45;;;;;;;9.25;1.58;;;21.80;99.90;;;;;;6253753;22;20011;-79
2022/08/26 12:20:44;;;;;;;5.53;1.27;;;21.80;99.90;;;;;;6280495;22;20043;-79
2022/08/26 12:23:25;;;;;;;7.35;1.48;;;21.80;99.90;;;;;;6253695;22;20045;-79
2022/08/26 12:26:01;;;;;;;5.85;1.05;;;21.70;99.90;;;;;;6280514;22;20026;-79
2022/08/26 12:28:28;;;;;;;5.97;1.63;;;21.90;99.90;;;;;;6281343;22;20459;-79
2022/08/26 12:31:00;;;;;;;2.78;1.05;;;21.90;99.90;;;;;;6278479;22;20030;-79
2022/08/26 12:33:27;;;;;;;5.00;1.60;;;22.00;99.90;;;;;;6255891;22;20008;-79
2022/08/26 12:35:53;;;;;;;5.43;1.30;;;22.10;99.90;;;;;;6256120;22;20441;-79
2022/08/26 12:38:20;;;;;;;4.13;1.30;;;22.20;99.90;;;;;;6254801;22;20019;-79
2022/08/26 12:40:48;;;;;;;6.72;1.20;;;22.30;99.90;;;;;;6256468;22;20076;-79
2022/08/26 12:43:39;;;;;;;4.95;1.10;;;22.30;99.90;;;;;;6255933;22;20037;-79
2022/08/26 12:46:06;;;;;;;5.45;1.30;;;22.30;99.90;;;;;;6255037;22;20322;-79
2022/08/26 12:48:37;;;;;;;7.05;1.70;;;22.30;99.90;;;;;;6281892;22;20037;-79
2022/08/26 12:51:11;;;;;;;8.85;1.52;;;22.30;99.90;;;;;;6254877;22;20046;-78
2022/08/26 12:53:42;;;;;;;5.03;1.75;;;22.20;99.90;;;;;;6280220;22;20019;-78
2022/08/26 12:56:26;;;;;;;7.35;1.33;;;22.20;99.90;;;;;;6281638;22;20384;-78
2022/08/26 12:59:20;;;;;;;7.60;1.70;;;22.20;99.90;;;;;;6255848;22;20011;-79